sensor_id;sensor_type;location;lat;lon;timestamp;P1;durP1;ratioP1;P2;durP2;ratioP2
39970;SDS011;35425;51.142;17.178;2022-11-20T00:00:06;17.20;;;12.30;;
39970;SDS011;35425;51.142;17.178;2022-11-20T00:02:33;17.95;;;13.57;;
39970;SDS011;35425;51.142;17.178;2022-11-20T00:04:59;17.67;;;13.95;;
39970;SDS011;35425;51.142;17.178;2022-11-20T00:07:26;17.95;;;13.38;;
39970;SDS011;35425;51.142;17.178;2022-11-20T00:09:52;17.33;;;13.60;;
39970;SDS011;35425;51.142;17.178;2022-11-20T00:12:19;17.15;;;14.02;;
39970;SDS011;35425;51.142;17.178;2022-11-20T00:14:45;18.08;;;13.93;;
39970;SDS011;35425;51.142;17.178;2022-11-20T00:17:11;19.77;;;14.80;;
39970;SDS011;35425;51.142;17.178;2022-11-20T00:19:38;19.48;;;14.20;;
39970;SDS011;35425;51.142;17.178;2022-11-20T00:22:04;19.67;;;15.15;;
39970;SDS011;35425;51.142;17.178;2022-11-20T00:24:31;20.00;;;15.18;;
39970;SDS011;35425;51.142;17.178;2022-11-20T00:26:57;19.92;;;15.43;;
39970;SDS011;35425;51.142;17.178;2022-11-20T00:29:24;19.95;;;15.15;;
39970;SDS011;35425;51.142;17.178;2022-11-20T00:31:50;21.52;;;16.27;;
39970;SDS011;35425;51.142;17.178;2022-11-20T00:34:16;19.65;;;15.02;;
39970;SDS011;35425;51.142;17.178;2022-11-20T00:36:43;20.92;;;15.73;;
39970;SDS011;35425;51.142;17.178;2022-11-20T00:39:09;20.42;;;16.00;;
39970;SDS011;35425;51.142;17.178;2022-11-20T00:41:36;19.48;;;15.75;;
39970;SDS011;35425;51.142;17.178;2022-11-20T00:44:02;20.55;;;16.38;;
39970;SDS011;35425;51.142;17.178;2022-11-20T00:46:29;22.13;;;16.77;;
39970;SDS011;35425;51.142;17.178;2022-11-20T00:48:55;23.15;;;16.48;;
39970;SDS011;35425;51.142;17.178;2022-11-20T00:51:23;19.20;;;15.70;;
39970;SDS011;35425;51.142;17.178;2022-11-20T00:53:50;20.92;;;15.85;;
39970;SDS011;35425;51.142;17.178;2022-11-20T00:56:17;20.60;;;15.98;;
39970;SDS011;35425;51.142;17.178;2022-11-20T00:58:47;18.80;;;15.57;;
39970;SDS011;35425;51.142;17.178;2022-11-20T01:03:44;20.80;;;15.98;;
39970;SDS011;35425;51.142;17.178;2022-11-20T01:06:17;20.60;;;15.20;;
39970;SDS011;35425;51.142;17.178;2022-11-20T01:08:44;20.05;;;15.55;;
39970;SDS011;35425;51.142;17.178;2022-11-20T01:11:16;20.48;;;15.77;;
39970;SDS011;35425;51.142;17.178;2022-11-20T01:13:42;20.85;;;15.77;;
39970;SDS011;35425;51.142;17.178;2022-11-20T01:16:44;20.38;;;15.40;;
39970;SDS011;35425;51.142;17.178;2022-11-20T01:19:03;18.58;;;15.10;;
39970;SDS011;35425;51.142;17.178;2022-11-20T01:23:56;18.95;;;14.70;;
39970;SDS011;35425;51.142;17.178;2022-11-20T01:26:24;21.45;;;15.60;;
39970;SDS011;35425;51.142;17.178;2022-11-20T01:28:50;20.10;;;15.27;;
39970;SDS011;35425;51.142;17.178;2022-11-20T01:33:44;20.90;;;15.55;;
39970;SDS011;35425;51.142;17.178;2022-11-20T01:36:11;18.60;;;14.73;;
39970;SDS011;35425;51.142;17.178;2022-11-20T01:38:37;19.95;;;14.95;;
39970;SDS011;35425;51.142;17.178;2022-11-20T01:41:04;18.70;;;13.65;;
39970;SDS011;35425;51.142;17.178;2022-11-20T01:43:30;17.55;;;14.32;;
39970;SDS011;35425;51.142;17.178;2022-11-20T01:48:34;18.92;;;14.50;;
39970;SDS011;35425;51.142;17.178;2022-11-20T01:53:30;18.20;;;14.10;;
39970;SDS011;35425;51.142;17.178;2022-11-20T01:55:58;17.40;;;14.48;;
39970;SDS011;35425;51.142;17.178;2022-11-20T01:58:30;19.02;;;13.75;;
39970;SDS011;35425;51.142;17.178;2022-11-20T02:00:58;17.60;;;13.80;;
39970;SDS011;35425;51.142;17.178;2022-11-20T02:03:25;18.75;;;13.75;;
39970;SDS011;35425;51.142;17.178;2022-11-20T02:06:12;16.92;;;12.90;;
39970;SDS011;35425;51.142;17.178;2022-11-20T02:08:40;19.20;;;13.50;;
39970;SDS011;35425;51.142;17.178;2022-11-20T02:11:07;18.08;;;13.93;;
39970;SDS011;35425;51.142;17.178;2022-11-20T02:13:33;18.00;;;13.23;;
39970;SDS011;35425;51.142;17.178;2022-11-20T02:21:17;16.80;;;12.60;;
39970;SDS011;35425;51.142;17.178;2022-11-20T02:26:24;16.08;;;11.88;;
39970;SDS011;35425;51.142;17.178;2022-11-20T02:28:51;14.77;;;11.50;;
39970;SDS011;35425;51.142;17.178;2022-11-20T02:31:18;17.75;;;12.73;;
39970;SDS011;35425;51.142;17.178;2022-11-20T02:33:44;15.75;;;12.27;;
39970;SDS011;35425;51.142;17.178;2022-11-20T02:36:11;16.50;;;12.93;;
39970;SDS011;35425;51.142;17.178;2022-11-20T02:38:38;16.15;;;12.43;;
39970;SDS011;35425;51.142;17.178;2022-11-20T02:41:05;14.90;;;12.00;;
39970;SDS011;35425;51.142;17.178;2022-11-20T02:43:31;15.57;;;11.70;;
39970;SDS011;35425;51.142;17.178;2022-11-20T02:45:58;15.23;;;10.95;;
39970;SDS011;35425;51.142;17.178;2022-11-20T02:48:24;15.18;;;11.57;;
39970;SDS011;35425;51.142;17.178;2022-11-20T02:50:53;14.23;;;11.27;;
39970;SDS011;35425;51.142;17.178;2022-11-20T02:53:19;15.45;;;11.75;;
39970;SDS011;35425;51.142;17.178;2022-11-20T02:55:46;13.88;;;10.90;;
39970;SDS011;35425;51.142;17.178;2022-11-20T02:58:12;14.45;;;11.02;;
39970;SDS011;35425;51.142;17.178;2022-11-20T03:00:39;13.68;;;10.32;;
39970;SDS011;35425;51.142;17.178;2022-11-20T03:03:05;14.63;;;11.13;;
39970;SDS011;35425;51.142;17.178;2022-11-20T03:05:32;13.13;;;10.38;;
39970;SDS011;35425;51.142;17.178;2022-11-20T03:07:58;14.55;;;11.10;;
39970;SDS011;35425;51.142;17.178;2022-11-20T03:10:25;13.05;;;10.65;;
39970;SDS011;35425;51.142;17.178;2022-11-20T03:12:54;15.20;;;10.57;;
39970;SDS011;35425;51.142;17.178;2022-11-20T03:15:22;14.07;;;11.05;;
39970;SDS011;35425;51.142;17.178;2022-11-20T03:17:49;13.00;;;10.50;;
39970;SDS011;35425;51.142;17.178;2022-11-20T03:20:15;14.70;;;10.68;;
39970;SDS011;35425;51.142;17.178;2022-11-20T03:22:41;13.27;;;10.65;;
39970;SDS011;35425;51.142;17.178;2022-11-20T03:25:08;12.55;;;10.18;;
39970;SDS011;35425;51.142;17.178;2022-11-20T03:27:34;14.55;;;11.00;;
39970;SDS011;35425;51.142;17.178;2022-11-20T03:30:01;12.75;;;10.48;;
39970;SDS011;35425;51.142;17.178;2022-11-20T03:32:28;12.90;;;9.88;;
39970;SDS011;35425;51.142;17.178;2022-11-20T03:34:54;13.63;;;10.50;;
39970;SDS011;35425;51.142;17.178;2022-11-20T03:37:21;15.27;;;10.48;;
39970;SDS011;35425;51.142;17.178;2022-11-20T03:39:47;14.05;;;10.95;;
39970;SDS011;35425;51.142;17.178;2022-11-20T03:42:13;14.18;;;10.55;;
39970;SDS011;35425;51.142;17.178;2022-11-20T03:44:58;13.45;;;10.70;;
39970;SDS011;35425;51.142;17.178;2022-11-20T03:47:25;14.07;;;10.98;;
39970;SDS011;35425;51.142;17.178;2022-11-20T03:49:51;12.63;;;10.48;;
39970;SDS011;35425;51.142;17.178;2022-11-20T03:52:18;13.77;;;10.32;;
39970;SDS011;35425;51.142;17.178;2022-11-20T03:54:44;12.57;;;10.15;;
39970;SDS011;35425;51.142;17.178;2022-11-20T03:57:11;12.85;;;10.23;;
39970;SDS011;35425;51.142;17.178;2022-11-20T03:59:38;13.48;;;10.30;;
39970;SDS011;35425;51.142;17.178;2022-11-20T04:02:05;12.77;;;10.23;;
39970;SDS011;35425;51.142;17.178;2022-11-20T04:04:31;11.10;;;9.35;;
39970;SDS011;35425;51.142;17.178;2022-11-20T04:06:57;12.77;;;10.00;;
39970;SDS011;35425;51.142;17.178;2022-11-20T04:09:24;12.07;;;9.68;;
39970;SDS011;35425;51.142;17.178;2022-11-20T04:11:50;13.23;;;10.43;;
39970;SDS011;35425;51.142;17.178;2022-11-20T04:14:17;12.05;;;9.40;;
39970;SDS011;35425;51.142;17.178;2022-11-20T04:16:43;12.60;;;9.40;;
39970;SDS011;35425;51.142;17.178;2022-11-20T04:19:11;13.98;;;10.00;;
39970;SDS011;35425;51.142;17.178;2022-11-20T04:21:37;11.45;;;9.15;;
39970;SDS011;35425;51.142;17.178;2022-11-20T04:24:04;13.13;;;10.02;;
39970;SDS011;35425;51.142;17.178;2022-11-20T04:26:30;12.30;;;9.52;;
39970;SDS011;35425;51.142;17.178;2022-11-20T04:28:57;12.75;;;10.00;;
39970;SDS011;35425;51.142;17.178;2022-11-20T04:31:25;10.77;;;9.30;;
39970;SDS011;35425;51.142;17.178;2022-11-20T04:33:51;10.43;;;8.70;;
39970;SDS011;35425;51.142;17.178;2022-11-20T04:36:22;12.55;;;9.95;;
39970;SDS011;35425;51.142;17.178;2022-11-20T04:38:52;13.27;;;10.25;;
39970;SDS011;35425;51.142;17.178;2022-11-20T04:41:22;13.23;;;10.07;;
39970;SDS011;35425;51.142;17.178;2022-11-20T04:43:50;11.95;;;9.68;;
39970;SDS011;35425;51.142;17.178;2022-11-20T04:46:17;11.73;;;9.48;;
39970;SDS011;35425;51.142;17.178;2022-11-20T04:48:44;11.25;;;9.38;;
39970;SDS011;35425;51.142;17.178;2022-11-20T04:51:10;12.73;;;9.90;;
39970;SDS011;35425;51.142;17.178;2022-11-20T04:53:36;13.18;;;9.55;;
39970;SDS011;35425;51.142;17.178;2022-11-20T04:56:04;12.80;;;9.73;;
39970;SDS011;35425;51.142;17.178;2022-11-20T04:58:31;12.63;;;9.48;;
39970;SDS011;35425;51.142;17.178;2022-11-20T05:01:07;11.10;;;9.40;;
39970;SDS011;35425;51.142;17.178;2022-11-20T05:03:35;11.65;;;9.35;;
39970;SDS011;35425;51.142;17.178;2022-11-20T05:06:07;11.57;;;9.48;;
39970;SDS011;35425;51.142;17.178;2022-11-20T05:08:34;12.13;;;9.55;;
39970;SDS011;35425;51.142;17.178;2022-11-20T05:11:02;11.48;;;9.25;;
39970;SDS011;35425;51.142;17.178;2022-11-20T05:13:28;11.23;;;9.18;;
39970;SDS011;35425;51.142;17.178;2022-11-20T05:15:55;11.75;;;8.95;;
39970;SDS011;35425;51.142;17.178;2022-11-20T05:18:21;11.50;;;9.13;;
39970;SDS011;35425;51.142;17.178;2022-11-20T05:20:54;9.77;;;8.27;;
39970;SDS011;35425;51.142;17.178;2022-11-20T05:23:20;10.52;;;8.93;;
39970;SDS011;35425;51.142;17.178;2022-11-20T05:25:47;10.45;;;8.85;;
39970;SDS011;35425;51.142;17.178;2022-11-20T05:28:13;11.57;;;9.75;;
39970;SDS011;35425;51.142;17.178;2022-11-20T05:30:40;9.70;;;8.55;;
39970;SDS011;35425;51.142;17.178;2022-11-20T05:33:07;10.38;;;8.65;;
39970;SDS011;35425;51.142;17.178;2022-11-20T05:35:33;11.32;;;8.95;;
39970;SDS011;35425;51.142;17.178;2022-11-20T05:38:00;11.15;;;9.40;;
39970;SDS011;35425;51.142;17.178;2022-11-20T05:40:26;10.55;;;8.82;;
39970;SDS011;35425;51.142;17.178;2022-11-20T05:42:53;10.85;;;9.13;;
39970;SDS011;35425;51.142;17.178;2022-11-20T05:45:19;10.07;;;8.35;;
39970;SDS011;35425;51.142;17.178;2022-11-20T05:47:46;10.27;;;8.45;;
39970;SDS011;35425;51.142;17.178;2022-11-20T05:50:13;10.85;;;9.07;;
39970;SDS011;35425;51.142;17.178;2022-11-20T05:52:39;11.63;;;9.02;;
39970;SDS011;35425;51.142;17.178;2022-11-20T05:55:06;10.85;;;8.90;;
39970;SDS011;35425;51.142;17.178;2022-11-20T05:57:32;10.55;;;8.77;;
39970;SDS011;35425;51.142;17.178;2022-11-20T05:59:59;11.52;;;9.00;;
39970;SDS011;35425;51.142;17.178;2022-11-20T06:02:25;9.50;;;8.07;;
39970;SDS011;35425;51.142;17.178;2022-11-20T06:04:52;11.80;;;8.88;;
39970;SDS011;35425;51.142;17.178;2022-11-20T06:07:18;11.05;;;8.55;;
39970;SDS011;35425;51.142;17.178;2022-11-20T06:09:45;11.18;;;9.60;;
39970;SDS011;35425;51.142;17.178;2022-11-20T06:12:11;12.07;;;8.93;;
39970;SDS011;35425;51.142;17.178;2022-11-20T06:14:37;10.43;;;8.98;;
39970;SDS011;35425;51.142;17.178;2022-11-20T06:17:04;11.93;;;9.13;;
39970;SDS011;35425;51.142;17.178;2022-11-20T06:19:30;11.20;;;8.85;;
39970;SDS011;35425;51.142;17.178;2022-11-20T06:21:57;10.30;;;8.55;;
39970;SDS011;35425;51.142;17.178;2022-11-20T06:24:23;10.98;;;9.38;;
39970;SDS011;35425;51.142;17.178;2022-11-20T06:26:51;10.77;;;8.80;;
39970;SDS011;35425;51.142;17.178;2022-11-20T06:29:18;10.75;;;9.00;;
39970;SDS011;35425;51.142;17.178;2022-11-20T06:31:44;10.43;;;8.95;;
39970;SDS011;35425;51.142;17.178;2022-11-20T06:34:11;11.25;;;8.65;;
39970;SDS011;35425;51.142;17.178;2022-11-20T06:36:37;12.27;;;9.32;;
39970;SDS011;35425;51.142;17.178;2022-11-20T06:39:04;11.82;;;9.07;;
39970;SDS011;35425;51.142;17.178;2022-11-20T06:41:30;10.27;;;9.07;;
39970;SDS011;35425;51.142;17.178;2022-11-20T06:43:56;12.30;;;9.38;;
39970;SDS011;35425;51.142;17.178;2022-11-20T06:46:23;11.13;;;9.65;;
39970;SDS011;35425;51.142;17.178;2022-11-20T06:48:50;11.63;;;9.85;;
39970;SDS011;35425;51.142;17.178;2022-11-20T06:51:17;12.50;;;9.45;;
39970;SDS011;35425;51.142;17.178;2022-11-20T06:53:43;11.38;;;8.50;;
39970;SDS011;35425;51.142;17.178;2022-11-20T06:56:10;10.88;;;8.77;;
39970;SDS011;35425;51.142;17.178;2022-11-20T06:58:36;13.15;;;9.25;;
39970;SDS011;35425;51.142;17.178;2022-11-20T07:01:11;11.93;;;9.65;;
39970;SDS011;35425;51.142;17.178;2022-11-20T07:03:39;12.30;;;9.30;;
39970;SDS011;35425;51.142;17.178;2022-11-20T07:06:05;11.77;;;9.60;;
39970;SDS011;35425;51.142;17.178;2022-11-20T07:08:32;11.63;;;9.57;;
39970;SDS011;35425;51.142;17.178;2022-11-20T07:11:02;12.15;;;9.63;;
39970;SDS011;35425;51.142;17.178;2022-11-20T07:13:28;12.20;;;9.52;;
39970;SDS011;35425;51.142;17.178;2022-11-20T07:15:58;12.02;;;9.32;;
39970;SDS011;35425;51.142;17.178;2022-11-20T07:18:25;12.25;;;9.52;;
39970;SDS011;35425;51.142;17.178;2022-11-20T07:20:51;12.02;;;9.80;;
39970;SDS011;35425;51.142;17.178;2022-11-20T07:23:18;11.68;;;9.45;;
39970;SDS011;35425;51.142;17.178;2022-11-20T07:25:44;11.77;;;9.20;;
39970;SDS011;35425;51.142;17.178;2022-11-20T07:28:11;11.68;;;9.10;;
39970;SDS011;35425;51.142;17.178;2022-11-20T07:30:37;11.52;;;9.13;;
39970;SDS011;35425;51.142;17.178;2022-11-20T07:33:04;11.63;;;9.88;;
39970;SDS011;35425;51.142;17.178;2022-11-20T07:35:30;11.77;;;9.38;;
39970;SDS011;35425;51.142;17.178;2022-11-20T07:37:57;10.57;;;9.18;;
39970;SDS011;35425;51.142;17.178;2022-11-20T07:40:23;11.85;;;9.15;;
39970;SDS011;35425;51.142;17.178;2022-11-20T07:42:50;11.52;;;9.30;;
39970;SDS011;35425;51.142;17.178;2022-11-20T07:45:17;11.60;;;9.02;;
39970;SDS011;35425;51.142;17.178;2022-11-20T07:47:43;10.77;;;8.73;;
39970;SDS011;35425;51.142;17.178;2022-11-20T07:50:10;11.02;;;9.38;;
39970;SDS011;35425;51.142;17.178;2022-11-20T07:52:36;11.75;;;9.68;;
39970;SDS011;35425;51.142;17.178;2022-11-20T07:55:03;11.70;;;9.10;;
39970;SDS011;35425;51.142;17.178;2022-11-20T07:57:30;12.82;;;10.18;;
39970;SDS011;35425;51.142;17.178;2022-11-20T07:59:56;11.20;;;9.68;;
39970;SDS011;35425;51.142;17.178;2022-11-20T08:02:22;11.57;;;9.30;;
39970;SDS011;35425;51.142;17.178;2022-11-20T08:04:49;11.48;;;9.27;;
39970;SDS011;35425;51.142;17.178;2022-11-20T08:07:15;11.55;;;9.20;;
39970;SDS011;35425;51.142;17.178;2022-11-20T08:09:42;10.77;;;9.02;;
39970;SDS011;35425;51.142;17.178;2022-11-20T08:12:09;12.30;;;9.57;;
39970;SDS011;35425;51.142;17.178;2022-11-20T08:15:01;12.13;;;9.25;;
39970;SDS011;35425;51.142;17.178;2022-11-20T08:17:27;10.20;;;8.65;;
39970;SDS011;35425;51.142;17.178;2022-11-20T08:19:53;11.05;;;8.57;;
39970;SDS011;35425;51.142;17.178;2022-11-20T08:22:20;10.85;;;8.82;;
39970;SDS011;35425;51.142;17.178;2022-11-20T08:24:47;10.20;;;9.02;;
39970;SDS011;35425;51.142;17.178;2022-11-20T08:27:14;11.98;;;9.48;;
39970;SDS011;35425;51.142;17.178;2022-11-20T08:29:40;11.32;;;9.48;;
39970;SDS011;35425;51.142;17.178;2022-11-20T08:32:06;11.45;;;9.00;;
39970;SDS011;35425;51.142;17.178;2022-11-20T08:34:33;11.98;;;9.73;;
39970;SDS011;35425;51.142;17.178;2022-11-20T08:37:01;11.60;;;8.88;;
39970;SDS011;35425;51.142;17.178;2022-11-20T08:39:27;11.80;;;9.23;;
39970;SDS011;35425;51.142;17.178;2022-11-20T08:41:54;11.52;;;8.93;;
39970;SDS011;35425;51.142;17.178;2022-11-20T08:44:20;12.13;;;8.98;;
39970;SDS011;35425;51.142;17.178;2022-11-20T08:46:47;11.82;;;9.48;;
39970;SDS011;35425;51.142;17.178;2022-11-20T08:49:13;10.85;;;8.55;;
39970;SDS011;35425;51.142;17.178;2022-11-20T08:51:40;11.20;;;9.40;;
39970;SDS011;35425;51.142;17.178;2022-11-20T08:54:07;11.02;;;9.15;;
39970;SDS011;35425;51.142;17.178;2022-11-20T08:56:34;10.70;;;8.77;;
39970;SDS011;35425;51.142;17.178;2022-11-20T08:59:01;10.88;;;9.05;;
39970;SDS011;35425;51.142;17.178;2022-11-20T09:01:47;11.68;;;9.23;;
39970;SDS011;35425;51.142;17.178;2022-11-20T09:04:14;12.07;;;9.82;;
39970;SDS011;35425;51.142;17.178;2022-11-20T09:06:40;12.20;;;9.25;;
39970;SDS011;35425;51.142;17.178;2022-11-20T09:09:07;11.75;;;9.73;;
39970;SDS011;35425;51.142;17.178;2022-11-20T09:11:34;13.57;;;9.25;;
39970;SDS011;35425;51.142;17.178;2022-11-20T09:14:01;12.57;;;9.82;;
39970;SDS011;35425;51.142;17.178;2022-11-20T09:16:29;13.30;;;10.18;;
39970;SDS011;35425;51.142;17.178;2022-11-20T09:18:55;10.82;;;9.38;;
39970;SDS011;35425;51.142;17.178;2022-11-20T09:21:41;11.18;;;9.00;;
39970;SDS011;35425;51.142;17.178;2022-11-20T09:24:08;10.93;;;8.77;;
39970;SDS011;35425;51.142;17.178;2022-11-20T09:26:34;10.50;;;8.77;;
39970;SDS011;35425;51.142;17.178;2022-11-20T09:29:01;10.63;;;8.73;;
39970;SDS011;35425;51.142;17.178;2022-11-20T09:31:27;10.85;;;9.07;;
39970;SDS011;35425;51.142;17.178;2022-11-20T09:33:53;12.32;;;9.10;;
39970;SDS011;35425;51.142;17.178;2022-11-20T09:36:20;9.50;;;8.45;;
39970;SDS011;35425;51.142;17.178;2022-11-20T09:38:47;10.40;;;8.40;;
39970;SDS011;35425;51.142;17.178;2022-11-20T09:46:29;12.32;;;8.80;;
39970;SDS011;35425;51.142;17.178;2022-11-20T09:54:22;12.07;;;9.35;;
39970;SDS011;35425;51.142;17.178;2022-11-20T09:56:57;11.15;;;9.43;;
39970;SDS011;35425;51.142;17.178;2022-11-20T09:59:41;10.45;;;9.00;;
39970;SDS011;35425;51.142;17.178;2022-11-20T10:02:14;9.88;;;8.88;;
39970;SDS011;35425;51.142;17.178;2022-11-20T10:04:43;11.73;;;9.40;;
39970;SDS011;35425;51.142;17.178;2022-11-20T10:07:16;10.90;;;8.85;;
39970;SDS011;35425;51.142;17.178;2022-11-20T10:10:00;10.65;;;8.70;;
39970;SDS011;35425;51.142;17.178;2022-11-20T10:12:36;11.23;;;9.60;;
39970;SDS011;35425;51.142;17.178;2022-11-20T10:15:20;11.00;;;9.07;;
39970;SDS011;35425;51.142;17.178;2022-11-20T10:18:09;10.45;;;8.88;;
39970;SDS011;35425;51.142;17.178;2022-11-20T10:26:16;9.88;;;8.57;;
39970;SDS011;35425;51.142;17.178;2022-11-20T10:34:50;9.38;;;8.23;;
39970;SDS011;35425;51.142;17.178;2022-11-20T10:37:21;10.02;;;8.98;;
39970;SDS011;35425;51.142;17.178;2022-11-20T10:39:54;9.75;;;8.02;;
39970;SDS011;35425;51.142;17.178;2022-11-20T10:42:26;9.40;;;8.40;;
39970;SDS011;35425;51.142;17.178;2022-11-20T10:44:58;9.57;;;8.55;;
39970;SDS011;35425;51.142;17.178;2022-11-20T10:47:31;9.85;;;8.75;;
39970;SDS011;35425;51.142;17.178;2022-11-20T10:50:01;9.80;;;8.43;;
39970;SDS011;35425;51.142;17.178;2022-11-20T11:00:12;9.60;;;7.90;;
39970;SDS011;35425;51.142;17.178;2022-11-20T11:02:49;9.05;;;7.80;;
39970;SDS011;35425;51.142;17.178;2022-11-20T11:05:24;9.27;;;8.23;;
39970;SDS011;35425;51.142;17.178;2022-11-20T11:07:54;8.60;;;7.55;;
39970;SDS011;35425;51.142;17.178;2022-11-20T11:10:28;9.23;;;7.80;;
39970;SDS011;35425;51.142;17.178;2022-11-20T11:12:55;10.32;;;8.63;;
39970;SDS011;35425;51.142;17.178;2022-11-20T11:15:28;10.40;;;7.82;;
39970;SDS011;35425;51.142;17.178;2022-11-20T11:17:55;9.45;;;8.10;;
39970;SDS011;35425;51.142;17.178;2022-11-20T11:20:23;9.00;;;7.57;;
39970;SDS011;35425;51.142;17.178;2022-11-20T11:22:51;8.90;;;7.75;;
39970;SDS011;35425;51.142;17.178;2022-11-20T11:25:23;9.75;;;7.70;;
39970;SDS011;35425;51.142;17.178;2022-11-20T11:27:50;10.23;;;7.93;;
39970;SDS011;35425;51.142;17.178;2022-11-20T11:30:18;10.00;;;8.30;;
39970;SDS011;35425;51.142;17.178;2022-11-20T11:32:44;9.55;;;7.95;;
39970;SDS011;35425;51.142;17.178;2022-11-20T11:35:46;8.50;;;7.32;;
39970;SDS011;35425;51.142;17.178;2022-11-20T11:38:04;8.27;;;7.28;;
39970;SDS011;35425;51.142;17.178;2022-11-20T11:40:33;8.55;;;7.03;;
39970;SDS011;35425;51.142;17.178;2022-11-20T11:43:01;8.82;;;6.90;;
39970;SDS011;35425;51.142;17.178;2022-11-20T11:45:28;7.93;;;7.10;;
39970;SDS011;35425;51.142;17.178;2022-11-20T11:47:56;9.82;;;8.35;;
39970;SDS011;35425;51.142;17.178;2022-11-20T11:50:24;8.20;;;6.80;;
39970;SDS011;35425;51.142;17.178;2022-11-20T11:55:31;8.80;;;7.13;;
39970;SDS011;35425;51.142;17.178;2022-11-20T11:58:04;8.68;;;7.07;;
39970;SDS011;35425;51.142;17.178;2022-11-20T12:00:33;8.20;;;7.32;;
39970;SDS011;35425;51.142;17.178;2022-11-20T12:03:19;7.22;;;6.47;;
39970;SDS011;35425;51.142;17.178;2022-11-20T12:05:48;7.78;;;6.72;;
39970;SDS011;35425;51.142;17.178;2022-11-20T12:08:23;8.40;;;6.72;;
39970;SDS011;35425;51.142;17.178;2022-11-20T12:10:59;8.85;;;6.72;;
39970;SDS011;35425;51.142;17.178;2022-11-20T12:13:28;8.15;;;6.60;;
39970;SDS011;35425;51.142;17.178;2022-11-20T12:18:24;8.63;;;6.50;;
39970;SDS011;35425;51.142;17.178;2022-11-20T12:26:19;6.97;;;5.72;;
39970;SDS011;35425;51.142;17.178;2022-11-20T12:31:41;6.93;;;6.00;;
39970;SDS011;35425;51.142;17.178;2022-11-20T12:35:13;6.78;;;5.80;;
39970;SDS011;35425;51.142;17.178;2022-11-20T12:37:16;6.63;;;5.55;;
39970;SDS011;35425;51.142;17.178;2022-11-20T12:39:49;6.85;;;5.80;;
39970;SDS011;35425;51.142;17.178;2022-11-20T12:42:28;6.55;;;5.13;;
39970;SDS011;35425;51.142;17.178;2022-11-20T13:01:38;6.53;;;5.13;;
39970;SDS011;35425;51.142;17.178;2022-11-20T13:06:44;6.35;;;5.72;;
39970;SDS011;35425;51.142;17.178;2022-11-20T13:09:12;6.53;;;5.35;;
39970;SDS011;35425;51.142;17.178;2022-11-20T13:14:35;6.60;;;5.90;;
39970;SDS011;35425;51.142;17.178;2022-11-20T13:19:31;6.88;;;5.68;;
39970;SDS011;35425;51.142;17.178;2022-11-20T13:21:58;6.68;;;5.97;;
39970;SDS011;35425;51.142;17.178;2022-11-20T13:24:26;8.07;;;6.10;;
39970;SDS011;35425;51.142;17.178;2022-11-20T13:27:03;7.18;;;5.53;;
39970;SDS011;35425;51.142;17.178;2022-11-20T13:29:30;6.88;;;5.80;;
39970;SDS011;35425;51.142;17.178;2022-11-20T13:34:38;8.73;;;6.43;;
39970;SDS011;35425;51.142;17.178;2022-11-20T13:37:05;7.35;;;5.53;;
39970;SDS011;35425;51.142;17.178;2022-11-20T13:39:35;7.13;;;5.60;;
39970;SDS011;35425;51.142;17.178;2022-11-20T13:42:03;6.40;;;5.70;;
39970;SDS011;35425;51.142;17.178;2022-11-20T13:44:47;6.85;;;5.93;;
39970;SDS011;35425;51.142;17.178;2022-11-20T13:49:46;7.10;;;5.82;;
39970;SDS011;35425;51.142;17.178;2022-11-20T13:54:55;7.43;;;6.00;;
39970;SDS011;35425;51.142;17.178;2022-11-20T14:02:34;6.25;;;5.38;;
39970;SDS011;35425;51.142;17.178;2022-11-20T14:05:00;6.53;;;5.38;;
39970;SDS011;35425;51.142;17.178;2022-11-20T14:07:32;6.35;;;5.50;;
39970;SDS011;35425;51.142;17.178;2022-11-20T14:10:01;6.55;;;5.35;;
39970;SDS011;35425;51.142;17.178;2022-11-20T14:12:29;5.35;;;4.80;;
39970;SDS011;35425;51.142;17.178;2022-11-20T14:14:55;5.97;;;5.38;;
39970;SDS011;35425;51.142;17.178;2022-11-20T14:17:24;5.53;;;5.00;;
39970;SDS011;35425;51.142;17.178;2022-11-20T14:19:51;5.97;;;5.30;;
39970;SDS011;35425;51.142;17.178;2022-11-20T14:22:23;5.10;;;4.60;;
39970;SDS011;35425;51.142;17.178;2022-11-20T14:27:38;5.57;;;4.82;;
39970;SDS011;35425;51.142;17.178;2022-11-20T14:30:06;4.80;;;4.35;;
39970;SDS011;35425;51.142;17.178;2022-11-20T14:32:39;4.82;;;4.28;;
39970;SDS011;35425;51.142;17.178;2022-11-20T14:35:09;5.05;;;4.40;;
39970;SDS011;35425;51.142;17.178;2022-11-20T14:37:39;5.38;;;4.63;;
39970;SDS011;35425;51.142;17.178;2022-11-20T14:42:51;5.47;;;4.68;;
39970;SDS011;35425;51.142;17.178;2022-11-20T14:45:18;6.00;;;4.80;;
39970;SDS011;35425;51.142;17.178;2022-11-20T14:47:45;5.88;;;4.53;;
39970;SDS011;35425;51.142;17.178;2022-11-20T14:50:25;5.63;;;4.85;;
39970;SDS011;35425;51.142;17.178;2022-11-20T14:52:56;5.70;;;4.78;;
39970;SDS011;35425;51.142;17.178;2022-11-20T14:55:33;5.72;;;5.00;;
39970;SDS011;35425;51.142;17.178;2022-11-20T14:58:04;6.82;;;5.57;;
39970;SDS011;35425;51.142;17.178;2022-11-20T15:00:31;7.30;;;5.35;;
39970;SDS011;35425;51.142;17.178;2022-11-20T15:02:58;8.85;;;5.97;;
39970;SDS011;35425;51.142;17.178;2022-11-20T15:05:26;9.05;;;6.25;;
39970;SDS011;35425;51.142;17.178;2022-11-20T15:08:09;10.15;;;6.70;;
39970;SDS011;35425;51.142;17.178;2022-11-20T15:10:36;12.90;;;7.72;;
39970;SDS011;35425;51.142;17.178;2022-11-20T15:13:11;12.80;;;7.38;;
39970;SDS011;35425;51.142;17.178;2022-11-20T15:15:51;12.90;;;7.90;;
39970;SDS011;35425;51.142;17.178;2022-11-20T15:28:30;17.55;;;9.02;;
39970;SDS011;35425;51.142;17.178;2022-11-20T15:30:57;17.92;;;9.63;;
39970;SDS011;35425;51.142;17.178;2022-11-20T15:33:24;17.98;;;10.00;;
39970;SDS011;35425;51.142;17.178;2022-11-20T15:35:50;17.92;;;9.45;;
39970;SDS011;35425;51.142;17.178;2022-11-20T15:38:18;18.83;;;10.52;;
39970;SDS011;35425;51.142;17.178;2022-11-20T15:40:44;18.75;;;10.60;;
39970;SDS011;35425;51.142;17.178;2022-11-20T15:43:10;19.05;;;10.65;;
39970;SDS011;35425;51.142;17.178;2022-11-20T15:45:52;16.95;;;9.95;;
39970;SDS011;35425;51.142;17.178;2022-11-20T15:48:28;19.40;;;11.00;;
39970;SDS011;35425;51.142;17.178;2022-11-20T15:53:31;16.75;;;10.82;;
39970;SDS011;35425;51.142;17.178;2022-11-20T15:55:57;19.48;;;11.52;;
39970;SDS011;35425;51.142;17.178;2022-11-20T15:58:24;19.60;;;11.13;;
39970;SDS011;35425;51.142;17.178;2022-11-20T16:00:50;19.10;;;11.40;;
39970;SDS011;35425;51.142;17.178;2022-11-20T16:03:17;19.23;;;11.88;;
39970;SDS011;35425;51.142;17.178;2022-11-20T16:05:43;19.33;;;11.75;;
39970;SDS011;35425;51.142;17.178;2022-11-20T16:08:09;19.35;;;12.18;;
39970;SDS011;35425;51.142;17.178;2022-11-20T16:10:37;19.63;;;11.75;;
39970;SDS011;35425;51.142;17.178;2022-11-20T16:13:04;20.02;;;12.57;;
39970;SDS011;35425;51.142;17.178;2022-11-20T16:15:51;20.23;;;12.55;;
39970;SDS011;35425;51.142;17.178;2022-11-20T16:18:19;18.23;;;12.30;;
39970;SDS011;35425;51.142;17.178;2022-11-20T16:20:48;23.10;;;13.77;;
39970;SDS011;35425;51.142;17.178;2022-11-20T16:23:15;20.75;;;13.25;;
39970;SDS011;35425;51.142;17.178;2022-11-20T16:25:42;20.52;;;12.73;;
39970;SDS011;35425;51.142;17.178;2022-11-20T16:28:09;23.05;;;13.55;;